Flight Track Log - Related Links

Times and Time Zones

All times are in EDT time to prevent confusion due to time zone crossing. See the N674DJ flight status page for this flight to view local times or setup timezone preferences in your user account.

Time Position Orientation Groundspeed Altitude Reporting Facility
EDT Latitude Longitude Course Direction KTS MPH feet Rate Location/Type
Mon 12:38:55 PM 41.9272 -72.4958 266° West 359 413 23,300  Level Boston Center
Mon 12:39:55 PM 41.9439 -72.6411 279° West 356 410 25,400 1,350 Climbing Boston Center
Mon 12:40:55 PM 41.9603 -72.7778 279° West 356 410 26,000 300 Climbing Boston Center
Mon 12:41:55 PM 41.9742 -72.9175 278° West 373 429 26,000  Level Boston Center
Mon 12:42:55 PM 41.9861 -73.0572 277° West 406 467 26,000  Level Boston Center
Mon 12:43:55 PM 42.0039 -73.2111 279° West 420 483 26,000  Level Boston Center
Mon 12:44:00 PM 42.2788 -73.0176 266° West  Level FlightAware Approximate
Mon 12:44:55 PM 42.0194 -73.3622 278° West 420 483 26,000  Level Boston Center
Mon 12:45:55 PM 42.0369 -73.5106 279° West 415 478 26,000  Level Boston Center
Mon 12:46:55 PM 42.0519 -73.6647 278° West 415 478 26,000  Level Boston Center
Mon 12:47:55 PM 42.0689 -73.8161 279° West 415 478 26,000  Level Boston Center
Mon 12:48:55 PM 42.0836 -73.9703 277° West 415 478 26,000  Level Boston Center
Mon 12:49:55 PM 42.0981 -74.1244 277° West 415 478 26,000  Level Boston Center
Mon 12:50:55 PM 42.1144 -74.2817 278° West 420 483 26,000  Level Boston Center
Mon 12:51:55 PM 42.1286 -74.4389 277° West 425 489 26,000 -650 Level Boston Center
Mon 12:52:55 PM 42.1464 -74.5936 279° West 425 489 24,700 -1,650 Descending Boston Center
Mon 12:53:55 PM 42.1625 -74.7369 279° West 414 476 22,700 -1,810 Descending Boston Center
Mon 12:56:04 PM 42.1267 -75.0100 260° West 363 418 19,000 -1,168 Descending New York Center
Mon 12:57:05 PM 42.0283 -75.0817 208° Southwest 337 388 19,000  Level New York Center
Mon 12:58:03 PM 41.9450 -75.1433 209° Southwest 351 404 19,000  Level New York Center
Mon 12:59:03 PM 41.8614 -75.2017 207° Southwest 351 404 19,000 -545 Level New York Center
Mon 01:00:04 PM 41.7844 -75.2606 210° Southwest 351 404 17,900 -1,385 Descending New York Center
Mon 01:02:05 PM 41.6000 -75.3953 209° Southwest 363 418 14,800 -1,567 Descending New York Center
Mon 01:03:04 PM 41.5164 -75.4558 208° Southwest 358 412 13,200 -1,412 Descending New York Center
Mon 01:04:04 PM 41.4389 -75.5225 213° Southwest 353 406 12,000 -595 Descending New York Center
Mon 01:05:05 PM 41.3736 -75.5897 218° Southwest 340 391 12,000  Level New York Center
Mon 01:06:03 PM 41.2956 -75.6642 216° Southwest 340 391 12,000  Level New York Center
Mon 01:07:03 PM 41.2142 -75.7217 208° Southwest 345 397 12,000  Level New York Center
Mon 01:08:04 PM 41.1161 -75.7725 201° Southwest 338 389 12,000  Level New York Center
Mon 01:09:04 PM 41.0308 -75.8183 202° Southwest 344 396 12,000 -650 Level New York Center
Mon 01:10:04 PM 40.9519 -75.8592 201° Southwest 337 388 10,700 -1,033 Descending New York Center
Mon 01:12:04 PM 40.8156 -75.9314 202° Southwest 273 314 8,900 -1,133 Descending New York Center
Mon 01:13:04 PM 40.7494 -75.9675 202° Southwest 268 308 7,300 -1,488 Descending New York Center
Mon 01:14:05 PM 40.6789 -76.0031 201° Southwest 258 297 5,900 -1,441 Descending New York Center
Mon 01:16:03 PM 40.5664 -76.0983 213° Southwest 247 284 3,000 -972 Descending New York Center
Mon 01:17:04 PM 40.5086 -76.1322 204° Southwest 235 270 3,000  Level New York Center
Mon 01:18:04 PM 40.4583 -76.1392 186° South 206 237 3,000 -347 Level New York Center
Mon 01:19:05 PM 40.4375 -76.0939 121° Southeast 143 165 2,300 -700 Descending New York Center
Mon 01:21:04 PM 40.4033 -76.0150 120° Southeast 126 145 900 -536 Descending New York Center
Mon 01:22:04 PM 40.3864 -75.9783 121° Southeast 121 139 700 3,025 Descending New York Center
Mon 01:23:05 PM 40.3711 -75.9444 121° Southeast 121 139 7,000 3,124 Climbing New York Center
Mon 01:24:05 PM 40.3581 -75.9081 115° Southeast 121 139 7,000  Level New York Center

Login

Don't have an account? Register now (free) for customized features, flight alerts, and more!